createdAt,value
2019-03-02T00:01:00.413Z,42.60
2019-03-02T00:03:31.783Z,42.60
2019-03-02T00:06:02.056Z,39.30
2019-03-02T00:08:31.521Z,41.20
2019-03-02T00:11:00.550Z,40.25
2019-03-02T00:13:29.502Z,36.85
2019-03-02T00:15:58.507Z,38.45
2019-03-02T00:18:29.125Z,47.90
2019-03-02T00:20:58.529Z,48.63
2019-03-02T00:23:27.481Z,42.08
2019-03-02T00:25:56.608Z,44.20
2019-03-02T00:28:26.137Z,48.90
2019-03-02T00:30:57.782Z,49.63
2019-03-02T00:33:26.308Z,42.08
2019-03-02T00:35:55.176Z,45.80
2019-03-02T00:38:24.138Z,47.33
2019-03-02T00:40:53.276Z,49.80
2019-03-02T00:43:23.721Z,49.03
2019-03-02T00:45:53.083Z,54.58
2019-03-02T00:48:22.264Z,53.10
2019-03-02T00:50:51.564Z,53.83
2019-03-02T00:53:21.064Z,51.28
2019-03-02T00:55:49.914Z,55.20
2019-03-02T00:58:18.949Z,56.77
2019-03-02T01:00:50.059Z,55.15
2019-03-02T01:03:18.574Z,55.08
2019-03-02T01:05:48.182Z,54.63
2019-03-02T01:08:17.484Z,54.08
2019-03-02T01:10:46.428Z,56.95
2019-03-02T01:13:16.774Z,58.08
2019-03-02T01:15:46.613Z,57.25
2019-03-02T01:18:15.483Z,58.75
2019-03-02T01:20:44.697Z,57.53
2019-03-02T01:23:14.296Z,57.62
2019-03-02T01:25:45.535Z,55.92
2019-03-02T01:28:14.040Z,56.70
2019-03-02T01:30:43.632Z,58.78
2019-03-02T01:33:12.932Z,60.75
2019-03-02T01:35:41.947Z,60.55
2019-03-02T01:38:11.533Z,56.00
2019-03-02T01:40:41.598Z,57.40
2019-03-02T01:43:10.600Z,56.83
2019-03-02T01:45:39.625Z,61.73
2019-03-02T01:48:08.832Z,53.85
2019-03-02T01:50:38.032Z,60.20
2019-03-02T01:53:09.925Z,54.80
2019-03-02T01:55:38.065Z,53.95
2019-03-02T01:58:07.360Z,62.93
2019-03-02T02:00:36.364Z,56.00
2019-03-02T02:03:08.473Z,59.90
2019-03-02T02:05:36.492Z,59.77
2019-03-02T02:08:06.096Z,64.17
2019-03-02T02:10:35.108Z,62.23
2019-03-02T02:13:06.288Z,60.30
2019-03-02T02:15:35.064Z,55.70
2019-03-02T02:18:04.143Z,54.63
2019-03-02T02:20:33.314Z,57.05
2019-03-02T02:23:02.339Z,53.87
2019-03-02T02:25:32.621Z,53.65
2019-03-02T02:28:02.438Z,50.55
2019-03-02T02:30:31.841Z,47.67
2019-03-02T02:33:04.183Z,50.12
2019-03-02T02:35:39.322Z,46.10
2019-03-02T02:38:03.627Z,51.53
2019-03-02T02:40:32.627Z,51.88
2019-03-02T02:43:01.586Z,45.90
2019-03-02T02:45:30.812Z,51.00
2019-03-02T02:47:59.819Z,45.27
2019-03-02T02:50:31.098Z,51.28
2019-03-02T02:53:06.285Z,46.80
2019-03-02T02:55:30.770Z,46.30
2019-03-02T02:57:59.789Z,45.98
2019-03-02T03:00:29.219Z,44.20
2019-03-02T03:02:58.265Z,46.48
2019-03-02T03:05:27.573Z,47.10
2019-03-02T03:07:56.955Z,48.28
2019-03-02T03:10:34.353Z,49.93
2019-03-02T03:13:04.258Z,46.95
2019-03-02T03:15:41.854Z,47.05
2019-03-02T03:18:14.430Z,44.25
2019-03-02T03:20:47.623Z,46.02
2019-03-02T03:23:12.689Z,43.17
2019-03-02T03:25:41.737Z,42.63
2019-03-02T03:28:11.036Z,51.45
2019-03-02T03:30:40.734Z,47.67
2019-03-02T03:33:10.065Z,49.95
2019-03-02T03:35:39.075Z,47.20
2019-03-02T03:38:08.740Z,51.18
2019-03-02T03:40:37.788Z,49.88
2019-03-02T03:43:06.824Z,48.90
2019-03-02T03:45:42.672Z,47.75
2019-03-02T03:48:06.961Z,44.98
2019-03-02T03:50:36.154Z,46.70
2019-03-02T03:53:05.761Z,45.25
2019-03-02T03:55:35.161Z,46.73
2019-03-02T03:58:04.196Z,50.43
2019-03-02T04:00:34.053Z,46.90
2019-03-02T04:03:04.020Z,48.30
2019-03-02T04:05:33.126Z,51.02
2019-03-02T04:08:02.171Z,54.77
2019-03-02T04:10:31.573Z,49.58
2019-03-02T04:13:04.884Z,51.63
2019-03-02T04:15:40.883Z,58.30
2019-03-02T04:18:02.748Z,52.45
2019-03-02T04:20:38.428Z,56.90
2019-03-02T04:23:10.276Z,50.52
2019-03-02T04:25:39.237Z,51.60
2019-03-02T04:28:08.296Z,51.70
2019-03-02T04:30:37.542Z,49.00
2019-03-02T04:33:07.658Z,50.30
2019-03-02T04:35:37.077Z,50.15
2019-03-02T04:38:06.096Z,48.57
2019-03-02T04:40:35.456Z,47.45
2019-03-02T04:43:04.775Z,52.27
2019-03-02T04:45:36.491Z,54.00
2019-03-02T04:48:04.749Z,51.70
2019-03-02T04:50:33.947Z,46.83
2019-03-02T04:53:03.196Z,54.93
2019-03-02T04:55:32.516Z,46.60
2019-03-02T04:58:02.149Z,48.90
2019-03-02T05:00:32.929Z,58.02
2019-03-02T05:03:02.544Z,41.98
2019-03-02T05:05:31.572Z,44.83
2019-03-02T05:08:01.921Z,58.23
2019-03-02T05:10:31.961Z,52.25
2019-03-02T05:13:01.269Z,43.10
2019-03-02T05:15:30.294Z,47.17
2019-03-02T05:17:59.865Z,42.00
2019-03-02T05:20:29.212Z,42.13
2019-03-02T05:22:58.460Z,45.67
2019-03-02T05:25:27.818Z,43.52
2019-03-02T05:27:57.064Z,45.37
2019-03-02T05:30:26.870Z,46.97
2019-03-02T05:32:57.212Z,39.92
2019-03-02T05:35:26.262Z,44.18
2019-03-02T05:37:55.307Z,43.48
2019-03-02T05:40:27.466Z,43.15
2019-03-02T05:42:55.075Z,47.00
2019-03-02T05:45:24.785Z,43.73
2019-03-02T05:47:54.058Z,44.58
2019-03-02T05:50:26.531Z,42.98
2019-03-02T05:52:55.317Z,42.45
2019-03-02T05:55:24.440Z,39.67
2019-03-02T05:57:53.987Z,40.08
2019-03-02T06:00:23.716Z,39.35
2019-03-02T06:02:52.671Z,39.23
2019-03-02T06:05:21.987Z,42.95
2019-03-02T06:07:53.880Z,39.75
2019-03-02T06:10:25.269Z,42.43
2019-03-02T06:12:53.270Z,42.93
2019-03-02T06:15:22.279Z,45.63
2019-03-02T06:17:51.488Z,37.95
2019-03-02T06:20:20.752Z,42.17
2019-03-02T06:22:52.303Z,38.45
2019-03-02T06:25:23.051Z,38.40
2019-03-02T06:27:52.132Z,38.50
2019-03-02T06:30:21.380Z,40.78
2019-03-02T06:32:50.732Z,43.28
2019-03-02T06:35:20.011Z,36.98
2019-03-02T06:37:49.059Z,41.35
2019-03-02T06:40:20.856Z,45.20
2019-03-02T06:42:49.146Z,38.88
2019-03-02T06:45:18.228Z,39.47
2019-03-02T06:47:47.556Z,47.88
2019-03-02T06:50:16.852Z,41.43
2019-03-02T06:52:45.894Z,40.53
2019-03-02T06:55:15.358Z,43.40
2019-03-02T06:57:46.267Z,36.83
2019-03-02T07:00:17.765Z,40.07
2019-03-02T07:02:47.138Z,40.58
2019-03-02T07:05:17.045Z,41.98
2019-03-02T07:07:46.352Z,40.35
2019-03-02T07:10:17.706Z,41.45
2019-03-02T07:12:48.161Z,43.73
2019-03-02T07:15:17.637Z,44.63
2019-03-02T07:18:08.042Z,44.35
2019-03-02T07:20:38.040Z,46.65
2019-03-02T07:23:07.335Z,42.13
2019-03-02T07:25:39.135Z,44.87
2019-03-02T07:28:07.994Z,44.18
2019-03-02T07:30:37.599Z,45.50
2019-03-02T07:33:07.810Z,47.55
2019-03-02T07:35:37.317Z,45.98
2019-03-02T07:38:08.289Z,49.37
2019-03-02T07:40:41.151Z,45.57
2019-03-02T07:43:09.679Z,43.68
2019-03-02T07:45:39.636Z,44.67
2019-03-02T07:48:08.937Z,46.30
2019-03-02T07:50:37.972Z,46.75
2019-03-02T07:53:07.435Z,45.52
2019-03-02T07:55:36.473Z,50.48
2019-03-02T07:58:05.648Z,48.23
2019-03-02T08:00:37.944Z,52.25
2019-03-02T08:03:05.703Z,50.63
2019-03-02T08:05:34.667Z,49.42
2019-03-02T08:08:03.731Z,48.40
2019-03-02T08:10:34.752Z,46.30
2019-03-02T08:13:03.842Z,53.25
2019-03-02T08:15:32.871Z,44.42
2019-03-02T08:18:01.924Z,44.08
2019-03-02T08:20:31.466Z,46.95
2019-03-02T08:23:00.532Z,44.42
2019-03-02T08:25:29.903Z,47.50
2019-03-02T08:27:58.992Z,45.08
2019-03-02T08:30:29.850Z,47.45
2019-03-02T08:32:59.198Z,46.80
2019-03-02T08:35:28.596Z,42.17
2019-03-02T08:37:57.648Z,42.00
2019-03-02T08:40:26.608Z,50.78
2019-03-02T08:42:55.973Z,49.83
2019-03-02T08:45:27.681Z,48.73
2019-03-02T08:47:56.467Z,51.42
2019-03-02T08:50:25.829Z,47.93
2019-03-02T08:52:55.433Z,47.40
2019-03-02T08:55:24.476Z,49.50
2019-03-02T08:57:53.933Z,45.93
2019-03-02T09:00:24.311Z,45.48
2019-03-02T09:02:55.038Z,49.42
2019-03-02T09:05:42.932Z,47.70
2019-03-02T09:07:55.174Z,42.48
2019-03-02T09:10:24.504Z,48.52
2019-03-02T09:12:57.912Z,45.73
2019-03-02T09:15:26.490Z,43.35
2019-03-02T09:17:57.870Z,49.20
2019-03-02T09:20:26.428Z,46.35
2019-03-02T09:23:00.416Z,42.80
2019-03-02T09:25:27.870Z,45.73
2019-03-02T09:27:57.632Z,46.00
2019-03-02T09:30:26.996Z,41.42
2019-03-02T09:32:56.607Z,44.42
2019-03-02T09:35:26.029Z,42.43
2019-03-02T09:37:55.035Z,39.67
2019-03-02T09:40:24.967Z,41.53
2019-03-02T09:42:54.181Z,41.90
2019-03-02T09:45:23.516Z,49.48
2019-03-02T09:47:52.683Z,42.37
2019-03-02T09:50:21.921Z,37.93
2019-03-02T09:52:51.451Z,41.47
2019-03-02T09:55:21.133Z,38.00
2019-03-02T09:57:50.348Z,40.90
2019-03-02T10:00:23.733Z,39.60
2019-03-02T10:02:52.162Z,41.73
2019-03-02T10:05:21.211Z,36.58
2019-03-02T10:07:50.731Z,42.50
2019-03-02T10:10:20.203Z,39.30
2019-03-02T10:12:51.463Z,40.83
2019-03-02T10:15:21.880Z,34.30
2019-03-02T10:17:51.275Z,37.78
2019-03-02T10:20:20.428Z,32.30
2019-03-02T10:22:49.469Z,34.03
2019-03-02T10:25:18.537Z,34.90
2019-03-02T10:27:48.161Z,33.90
2019-03-02T10:30:18.258Z,38.97
2019-03-02T10:32:47.580Z,36.75
2019-03-02T10:35:18.119Z,37.67
2019-03-02T10:37:47.572Z,35.55
2019-03-02T10:40:16.885Z,38.10
2019-03-02T10:42:45.980Z,35.52
2019-03-02T10:45:16.505Z,39.50
2019-03-02T10:47:45.840Z,38.15
2019-03-02T10:50:19.682Z,34.93
2019-03-02T10:52:49.002Z,32.08
2019-03-02T10:55:19.958Z,34.80
2019-03-02T10:57:49.689Z,33.78
2019-03-02T11:00:25.602Z,29.50
2019-03-02T11:02:57.279Z,29.37
2019-03-02T11:05:48.261Z,30.68
2019-03-02T11:08:36.313Z,36.63
2019-03-02T11:11:16.916Z,27.27
2019-03-02T11:14:04.349Z,26.70
2019-03-02T11:16:44.598Z,23.12
2019-03-02T11:19:23.949Z,27.30
2019-03-02T11:22:17.080Z,27.87
2019-03-02T11:25:05.176Z,29.18
2019-03-02T11:27:54.760Z,25.47
2019-03-02T11:30:51.836Z,25.20
2019-03-02T11:33:38.763Z,27.32
2019-03-02T11:36:31.942Z,26.90
2019-03-02T11:39:18.712Z,26.07
2019-03-02T11:41:54.084Z,22.02
2019-03-02T11:44:45.187Z,25.90
2019-03-02T11:47:33.012Z,24.30
2019-03-02T11:50:10.795Z,24.27
2019-03-02T11:53:17.725Z,23.02
2019-03-02T11:56:08.851Z,25.33
2019-03-02T11:59:05.895Z,26.20
2019-03-02T12:01:53.595Z,25.20
2019-03-02T12:04:31.396Z,27.93
2019-03-02T12:07:24.759Z,27.02
2019-03-02T12:10:05.234Z,27.25
2019-03-02T12:12:40.762Z,23.57
2019-03-02T12:15:34.929Z,25.32
2019-03-02T12:18:19.520Z,25.62
2019-03-02T12:21:00.588Z,24.87
2019-03-02T12:23:40.113Z,25.85
2019-03-02T12:26:28.217Z,24.27
2019-03-02T12:29:14.850Z,26.87
2019-03-02T12:32:03.861Z,20.07
2019-03-02T12:34:41.632Z,22.82
2019-03-02T12:37:37.315Z,22.07
2019-03-02T12:40:24.964Z,23.67
2019-03-02T12:43:16.076Z,23.15
2019-03-02T12:45:50.804Z,23.75
2019-03-02T12:48:44.065Z,22.52
2019-03-02T12:51:21.556Z,24.85
2019-03-02T12:54:12.663Z,24.02
2019-03-02T12:56:46.723Z,22.25
2019-03-02T12:59:39.576Z,24.43
2019-03-02T13:02:31.885Z,27.10
2019-03-02T13:05:29.644Z,22.07
2019-03-02T13:08:26.518Z,25.77
2019-03-02T13:11:12.888Z,21.40
2019-03-02T13:14:10.544Z,24.23
2019-03-02T13:16:59.407Z,22.62
2019-03-02T13:20:04.089Z,27.80
2019-03-02T13:22:40.400Z,24.98
2019-03-02T13:25:39.929Z,22.95
2019-03-02T13:28:41.768Z,21.85
2019-03-02T13:31:45.151Z,26.30
2019-03-02T13:34:32.760Z,25.73
2019-03-02T13:37:20.321Z,25.00
2019-03-02T13:40:06.143Z,23.05
2019-03-02T13:42:52.151Z,23.32
2019-03-02T13:45:31.846Z,27.22
2019-03-02T13:48:29.345Z,35.17
2019-03-02T13:51:17.956Z,24.32
2019-03-02T13:54:05.984Z,29.55
2019-03-02T13:57:06.015Z,23.05
2019-03-02T13:59:53.137Z,24.85
2019-03-02T14:02:40.429Z,24.00
2019-03-02T14:05:46.952Z,23.90
2019-03-02T14:08:39.778Z,24.35
2019-03-02T14:11:22.808Z,24.00
2019-03-02T14:14:14.539Z,24.32
2019-03-02T14:17:03.375Z,32.23
2019-03-02T14:19:55.091Z,50.03
2019-03-02T14:22:36.855Z,32.08
2019-03-02T14:25:25.095Z,32.95
2019-03-02T14:28:16.942Z,28.52
2019-03-02T14:31:19.782Z,28.57
2019-03-02T14:34:07.301Z,34.07
2019-03-02T14:36:51.146Z,35.83
2019-03-02T14:39:52.349Z,21.93
2019-03-02T14:42:35.912Z,26.10
2019-03-02T14:45:28.588Z,22.27
2019-03-02T14:48:29.434Z,19.67
2019-03-02T14:51:07.953Z,22.93
2019-03-02T14:53:55.714Z,20.40
2019-03-02T14:56:44.922Z,21.37
2019-03-02T14:59:32.798Z,20.92
2019-03-02T15:02:24.641Z,20.43
2019-03-02T15:05:16.172Z,20.43
2019-03-02T15:08:01.845Z,19.70
2019-03-02T15:10:51.164Z,17.93
2019-03-02T15:13:36.647Z,23.27
2019-03-02T15:16:25.139Z,19.57
2019-03-02T15:19:20.333Z,20.02
2019-03-02T15:22:27.894Z,18.17
2019-03-02T15:25:29.713Z,20.25
2019-03-02T15:28:09.779Z,24.40
2019-03-02T15:30:59.168Z,18.00
2019-03-02T15:33:46.381Z,21.87
2019-03-02T15:36:47.793Z,17.83
2019-03-02T15:39:49.387Z,20.17
2019-03-02T15:42:46.151Z,19.27
2019-03-02T15:45:34.750Z,19.63
2019-03-02T15:48:14.354Z,17.70
2019-03-02T15:50:54.455Z,19.00
2019-03-02T15:53:38.352Z,17.15
2019-03-02T15:56:25.874Z,17.98
2019-03-02T15:59:20.600Z,19.17
2019-03-02T16:02:18.438Z,20.35
2019-03-02T16:05:07.772Z,18.85
2019-03-02T16:08:14.102Z,22.00
2019-03-02T16:11:02.080Z,19.10
2019-03-02T16:13:56.076Z,21.73
2019-03-02T16:16:37.595Z,18.32
2019-03-02T16:19:16.011Z,17.00
2019-03-02T16:21:56.637Z,17.60
2019-03-02T16:24:45.955Z,18.48
2019-03-02T16:27:26.186Z,22.22
2019-03-02T16:30:23.144Z,19.25
2019-03-02T16:33:17.591Z,19.40
2019-03-02T16:36:17.735Z,21.77
2019-03-02T16:39:06.907Z,22.48
2019-03-02T16:41:54.372Z,28.07
2019-03-02T16:44:36.051Z,27.27
2019-03-02T16:47:22.516Z,21.60
2019-03-02T16:50:06.712Z,23.70
2019-03-02T16:52:52.580Z,25.95
2019-03-02T16:55:45.207Z,25.45
2019-03-02T16:58:27.429Z,26.37
2019-03-02T17:01:14.652Z,22.57
2019-03-02T17:03:55.308Z,31.20
2019-03-02T17:06:42.740Z,34.25
2019-03-02T17:09:19.440Z,27.35
2019-03-02T17:12:08.498Z,39.55
2019-03-02T17:15:03.072Z,29.67
2019-03-02T17:17:54.275Z,32.45
2019-03-02T17:20:45.194Z,26.20
2019-03-02T17:23:23.968Z,25.15
2019-03-02T17:25:58.420Z,27.87
2019-03-02T17:28:46.776Z,26.57
2019-03-02T17:31:24.584Z,26.42
2019-03-02T17:34:11.428Z,23.98
2019-03-02T17:37:05.841Z,24.43
2019-03-02T17:39:44.180Z,21.97
2019-03-02T17:42:31.778Z,24.87
2019-03-02T17:45:21.051Z,26.52
2019-03-02T17:48:08.187Z,26.87
2019-03-02T17:50:59.528Z,26.23
2019-03-02T17:53:49.089Z,26.05
2019-03-02T17:56:25.959Z,22.87
2019-03-02T17:59:13.969Z,23.85
2019-03-02T18:02:05.015Z,30.13
2019-03-02T18:04:39.344Z,25.27
2019-03-02T18:07:15.405Z,21.73
2019-03-02T18:10:08.342Z,20.70
2019-03-02T18:12:54.632Z,23.87
2019-03-02T18:15:42.876Z,22.00
2019-03-02T18:18:12.275Z,22.23
2019-03-02T18:20:41.576Z,22.10
2019-03-02T18:23:10.880Z,25.63
2019-03-02T18:25:39.916Z,19.80
2019-03-02T18:28:10.071Z,24.17
2019-03-02T18:30:42.347Z,22.80
2019-03-02T18:33:44.497Z,21.53
2019-03-02T18:36:13.542Z,22.13
2019-03-02T18:38:44.646Z,19.80
2019-03-02T18:41:16.662Z,23.20
2019-03-02T18:43:45.850Z,23.70
2019-03-02T18:49:15.988Z,21.93
2019-03-02T19:16:54.412Z,22.27
2019-03-02T19:19:23.448Z,25.52
2019-03-02T19:21:53.133Z,22.30
2019-03-02T19:24:22.380Z,25.82
2019-03-02T19:26:51.749Z,26.20
2019-03-02T19:29:21.084Z,24.10
2019-03-02T19:31:50.850Z,21.10
2019-03-02T19:34:19.905Z,23.75
2019-03-02T19:36:49.026Z,23.67
2019-03-02T19:39:21.816Z,24.70
2019-03-02T19:41:51.534Z,25.12
2019-03-02T19:44:20.572Z,27.53
2019-03-02T19:46:49.933Z,27.80
2019-03-02T19:49:19.321Z,21.83
2019-03-02T19:51:48.365Z,26.65
2019-03-02T19:54:18.437Z,30.95
2019-03-02T19:56:48.149Z,26.20
2019-03-02T19:59:17.853Z,28.67
2019-03-02T20:01:49.944Z,29.27
2019-03-02T20:04:20.212Z,25.72
2019-03-02T20:06:49.239Z,23.57
2019-03-02T20:09:19.521Z,24.70
2019-03-02T20:11:48.852Z,23.05
2019-03-02T20:14:17.840Z,23.77
2019-03-02T20:16:47.085Z,20.15
2019-03-02T20:19:16.080Z,22.27
2019-03-02T20:21:45.439Z,21.37
2019-03-02T20:24:14.840Z,23.07
2019-03-02T20:26:43.856Z,22.60
2019-03-02T20:29:13.209Z,18.70
2019-03-02T20:31:43.125Z,19.33
2019-03-02T20:34:12.191Z,20.62
2019-03-02T20:36:41.224Z,19.42
2019-03-02T20:39:10.675Z,20.60
2019-03-02T20:41:39.746Z,19.92
2019-03-02T20:44:08.826Z,18.12
2019-03-02T20:46:37.770Z,18.15
2019-03-02T20:49:06.659Z,23.70
2019-03-02T20:51:36.009Z,22.82
2019-03-02T20:54:05.145Z,20.50
2019-03-02T20:56:34.812Z,20.02
2019-03-02T20:59:05.241Z,17.57
2019-03-02T21:01:34.948Z,21.77
2019-03-02T21:04:04.561Z,19.70
2019-03-02T21:06:33.852Z,19.50
2019-03-02T21:09:04.687Z,18.87
2019-03-02T21:11:34.122Z,16.57
2019-03-02T21:14:03.491Z,19.35
2019-03-02T21:16:32.908Z,18.82
2019-03-02T21:19:02.881Z,20.17
2019-03-02T21:21:32.520Z,17.45
2019-03-02T21:24:01.592Z,15.10
2019-03-02T21:26:31.012Z,17.15
2019-03-02T21:29:00.726Z,19.77
2019-03-02T21:31:29.768Z,18.27
2019-03-02T21:33:59.117Z,16.20
2019-03-02T21:36:28.075Z,15.15
2019-03-02T21:38:56.960Z,18.70
2019-03-02T21:41:25.950Z,17.67
2019-03-02T21:43:54.993Z,16.85
2019-03-02T21:46:24.035Z,18.40
2019-03-02T21:48:53.099Z,15.13
2019-03-02T21:51:23.468Z,14.75
2019-03-02T21:53:52.773Z,18.00
2019-03-02T21:56:21.916Z,16.23
2019-03-02T21:58:51.225Z,17.30
2019-03-02T22:01:20.493Z,19.10
2019-03-02T22:03:49.460Z,15.68
2019-03-02T22:06:19.396Z,15.00
2019-03-02T22:08:48.792Z,13.28
2019-03-02T22:11:17.876Z,15.53
2019-03-02T22:13:46.903Z,16.33
2019-03-02T22:16:16.288Z,18.55
2019-03-02T22:18:45.321Z,14.35
2019-03-02T22:21:15.019Z,13.85
2019-03-02T22:23:44.396Z,15.93
2019-03-02T22:26:13.728Z,16.00
2019-03-02T22:28:43.868Z,16.75
2019-03-02T22:31:12.849Z,13.70
2019-03-02T22:33:42.224Z,13.25
2019-03-02T22:36:11.263Z,13.10
2019-03-02T22:38:40.912Z,16.82
2019-03-02T22:41:10.611Z,14.45
2019-03-02T22:43:39.648Z,14.63
2019-03-02T22:46:08.678Z,14.70
2019-03-02T22:48:38.349Z,14.10
2019-03-02T22:51:08.597Z,13.83
2019-03-02T22:53:37.776Z,14.63
2019-03-02T22:56:06.736Z,19.80
2019-03-02T22:58:34.940Z,14.73
2019-03-02T23:01:42.881Z,15.95
2019-03-02T23:04:11.933Z,15.72
2019-03-02T23:06:41.245Z,15.88
2019-03-02T23:09:12.032Z,16.67
2019-03-02T23:11:41.328Z,20.25
2019-03-02T23:14:10.355Z,13.80
2019-03-02T23:16:39.329Z,13.90
2019-03-02T23:19:08.725Z,12.43
2019-03-02T23:21:38.117Z,18.43
2019-03-02T23:24:07.520Z,11.70
2019-03-02T23:26:36.871Z,13.40
2019-03-02T23:29:06.933Z,13.03
2019-03-02T23:31:36.553Z,14.10
2019-03-02T23:34:05.618Z,13.10
2019-03-02T23:36:35.142Z,12.00
2019-03-02T23:39:05.747Z,11.18
2019-03-02T23:41:35.425Z,15.53
2019-03-02T23:44:04.780Z,11.22
2019-03-02T23:46:34.801Z,13.47
2019-03-02T23:49:04.243Z,12.05
2019-03-02T23:51:33.282Z,17.73
2019-03-02T23:54:02.653Z,13.90
2019-03-02T23:56:31.992Z,11.17
2019-03-02T23:59:01.302Z,11.38
